Погода Налутна неделю

Бенгази, Ливия

18 - 24 июля
  • 18июля
    Сегодня
    +23°
    +36°
    Ясно и безоблачно
    ВремяПогодаТемператураВлажностьДавлениеВетер, м/сВероятность осадков
    02:00Ясно и безоблачно+30°C25 %709 мм2.4 м/с0 %
    05:00Ясно и безоблачно+28°C27 %709 мм2.2 м/с0 %
    08:00Ясно и безоблачно+28°C30 %710 мм2.5 м/с0 %
    11:00Ясно и безоблачно+32°C17 %711 мм3.4 м/с0 %
    14:00Ясно и безоблачно+35°C13 %711 мм4.1 м/с0 %
    17:00Ясно и безоблачно+36°C15 %710 мм4.2 м/с0 %
    20:00Ясно и безоблачно+33°C20 %710 мм5.3 м/с0 %
    23:00Ясно и безоблачно+28°C40 %710 мм4.0 м/с0 %
  • 19июля
    Пятница
    +24°
    +35°
    Ясно и безоблачно
    ВремяПогодаТемператураВлажностьДавлениеВетер, м/сВероятность осадков
    02:00Ясно и безоблачно+26°C50 %709 мм2.7 м/с0 %
    05:00Ясно и безоблачно+24°C50 %709 мм2.6 м/с0 %
    08:00Ясно и безоблачно+25°C48 %710 мм2.5 м/с0 %
    11:00Ясно и безоблачно+30°C33 %711 мм3.3 м/с0 %
    14:00Ясно и безоблачно+33°C21 %710 мм3.8 м/с0 %
    17:00Ясно и безоблачно+34°C16 %709 мм3.8 м/с0 %
    20:00Ясно и безоблачно+32°C20 %709 мм5.0 м/с0 %
    23:00Ясно и безоблачно+28°C32 %709 мм4.2 м/с0 %
  • 20июля
    Суббота
    +25°
    +36°
    Ясно и безоблачно
    ВремяПогодаТемператураВлажностьДавлениеВетер, м/сВероятность осадков
    02:00Ясно и безоблачно+27°C41 %708 мм2.7 м/с0 %
    05:00Ясно и безоблачно+25°C39 %707 мм2.7 м/с0 %
    08:00Ясно и безоблачно+27°C35 %708 мм2.1 м/с0 %
    11:00Ясно и безоблачно+30°C26 %709 мм2.5 м/с0 %
    14:00Ясно и безоблачно+34°C18 %708 мм2.9 м/с0 %
    17:00Ясно и безоблачно+36°C14 %707 мм2.9 м/с0 %
    20:00Ясно и безоблачно+34°C16 %707 мм3.5 м/с0 %
    23:00Ясно и безоблачно+29°C30 %708 мм4.0 м/с0 %
  • 21июля
    Воскресенье
    +30°
    +38°
    Ясно и безоблачно
    ВремяПогодаТемператураВлажностьДавлениеВетер, м/сВероятность осадков
    02:00Ясно и безоблачно+28°C36 %707 мм2.7 м/с0 %
    05:00Ясно и безоблачно+27°C37 %707 мм2.8 м/с0 %
    08:00Ясно и безоблачно+28°C35 %708 мм2.6 м/с0 %
    11:00Ясно и безоблачно+34°C17 %709 мм2.2 м/с0 %
    14:00Ясно и безоблачно+37°C13 %709 мм3.0 м/с0 %
    17:00Ясно и безоблачно+38°C12 %708 мм3.1 м/с0 %
    20:00Ясно и безоблачно+36°C14 %708 мм3.5 м/с0 %
    23:00Ясно и безоблачно+33°C17 %708 мм3.4 м/с0 %
  • 22июля
    Понедельник
    +24°
    +40°
    Ясно и безоблачно
    ВремяПогодаТемператураВлажностьДавлениеВетер, м/сВероятность осадков
    02:00Ясно и безоблачно+32°C21 %707 мм2.7 м/с0 %
    05:00Ясно и безоблачно+30°C25 %707 мм3.0 м/с0 %
    08:00Ясно и безоблачно+31°C25 %708 мм2.7 м/с0 %
    11:00Ясно и безоблачно+36°C14 %709 мм2.0 м/с0 %
    14:00Ясно и безоблачно+40°C9 %709 мм3.8 м/с0 %
    17:00Ясно и безоблачно+40°C9 %708 мм4.2 м/с0 %
    20:00Ясно и безоблачно+31°C38 %708 мм6.7 м/с0 %
    23:00Ясно и безоблачно+26°C53 %709 мм5.0 м/с0 %
Мы используем cookies
Соглашаюсь